Terminal Aerodrome Forecast
Issued by NWS Portland, OR

Current Version | Previous Version | Text Only | Print | Product List | Glossary On
Versions: 1 2 3 4 5 6 7 8 9 10 11 12 13 14 15 16 17 18 19 20 21
000
FTUS46 KPQR 262324
TAFAST
TAF
KAST 262324Z 2700/2724 28010KT P6SM -DZ SCT020 OVC035
     FM270500 28004KT P6SM SCT040 BKN250
     FM271000 VRB03KT P6SM OVC015
     FM271900 32007KT P6SM SCT040=

USA.gov is the U.S. government's official web portal to all federal, state and local government web resources and services.